createdAt,value
2022-07-26T00:00:14.170Z,22.34
2022-07-26T00:02:47.358Z,22.32
2022-07-26T00:05:16.516Z,22.23
2022-07-26T00:07:43.677Z,22.16
2022-07-26T00:10:10.596Z,22.17
2022-07-26T00:12:37.581Z,22.15
2022-07-26T00:15:07.392Z,22.10
2022-07-26T00:17:34.143Z,22.15
2022-07-26T00:20:00.775Z,22.16
2022-07-26T00:22:36.533Z,22.15
2022-07-26T00:25:05.083Z,22.14
2022-07-26T00:27:32.904Z,22.14
2022-07-26T00:29:59.551Z,22.15
2022-07-26T00:32:26.344Z,22.13
2022-07-26T00:34:53.213Z,22.06
2022-07-26T00:37:20.878Z,22.03
2022-07-26T00:39:48.616Z,21.95
2022-07-26T00:42:15.484Z,21.93
2022-07-26T00:44:45.148Z,21.97
2022-07-26T00:47:12.877Z,21.99
2022-07-26T00:49:40.239Z,21.97
2022-07-26T00:52:09.146Z,21.98
2022-07-26T00:54:37.432Z,21.96
2022-07-26T00:57:04.841Z,21.91
2022-07-26T00:59:31.860Z,21.93
2022-07-26T01:01:58.773Z,21.87
2022-07-26T01:04:25.968Z,21.92
2022-07-26T01:06:53.413Z,21.89
2022-07-26T01:09:20.176Z,21.80
2022-07-26T01:11:46.921Z,21.83
2022-07-26T01:14:14.028Z,21.80
2022-07-26T01:16:41.005Z,21.69
2022-07-26T01:19:08.068Z,21.61
2022-07-26T01:21:35.083Z,21.51
2022-07-26T01:24:02.521Z,21.52
2022-07-26T01:26:29.278Z,21.49
2022-07-26T01:28:56.048Z,21.49
2022-07-26T01:31:23.631Z,21.45
2022-07-26T01:33:51.337Z,21.45
2022-07-26T01:36:18.055Z,21.40
2022-07-26T01:38:45.241Z,21.40
2022-07-26T01:41:12.066Z,21.40
2022-07-26T01:43:39.208Z,21.38
2022-07-26T01:46:09.362Z,21.34
2022-07-26T01:48:36.521Z,21.33
2022-07-26T01:51:03.448Z,21.39
2022-07-26T01:53:30.106Z,21.39
2022-07-26T01:55:56.921Z,21.42
2022-07-26T01:58:23.600Z,21.40
2022-07-26T02:00:50.323Z,21.31
2022-07-26T02:03:17.071Z,21.26
2022-07-26T02:05:43.851Z,21.24
2022-07-26T02:08:11.149Z,21.19
2022-07-26T02:10:56.825Z,21.22
2022-07-26T02:13:23.658Z,21.15
2022-07-26T02:15:50.525Z,21.08
2022-07-26T02:18:17.363Z,21.05
2022-07-26T02:20:44.314Z,20.94
2022-07-26T02:23:11.090Z,20.93
2022-07-26T02:25:37.848Z,20.97
2022-07-26T02:28:04.898Z,20.83
2022-07-26T02:30:31.628Z,20.88
2022-07-26T02:32:58.316Z,20.79
2022-07-26T02:35:25.114Z,20.80
2022-07-26T02:37:51.854Z,20.80
2022-07-26T02:40:19.515Z,20.85
2022-07-26T02:42:46.692Z,20.85
2022-07-26T02:45:13.439Z,20.89
2022-07-26T02:47:51.506Z,20.87
2022-07-26T02:50:19.738Z,20.87
2022-07-26T02:52:48.247Z,20.78
2022-07-26T02:55:21.687Z,20.64
2022-07-26T02:57:49.394Z,20.48
2022-07-26T03:00:21.402Z,20.22
2022-07-26T03:02:49.432Z,19.97
2022-07-26T03:05:16.546Z,19.87
2022-07-26T03:07:43.221Z,19.74
2022-07-26T03:10:10.087Z,19.69
2022-07-26T03:12:36.913Z,19.64
2022-07-26T03:15:03.993Z,19.55
2022-07-26T03:17:30.718Z,19.51
2022-07-26T03:19:59.236Z,19.52
2022-07-26T03:22:25.902Z,19.52
2022-07-26T03:24:52.615Z,19.51
2022-07-26T03:27:19.325Z,19.59
2022-07-26T03:29:46.024Z,19.62
2022-07-26T03:32:12.721Z,19.62
2022-07-26T03:34:39.393Z,19.57
2022-07-26T03:37:06.125Z,19.62
2022-07-26T03:39:32.888Z,19.64
2022-07-26T03:41:59.645Z,19.65
2022-07-26T03:44:26.271Z,19.68
2022-07-26T03:46:52.982Z,19.62
2022-07-26T03:49:19.716Z,19.63
2022-07-26T03:51:46.710Z,19.63
2022-07-26T03:54:13.429Z,19.65
2022-07-26T03:56:40.768Z,19.62
2022-07-26T03:59:09.834Z,19.55
2022-07-26T04:01:42.081Z,19.63
2022-07-26T04:04:10.575Z,19.55
2022-07-26T04:06:39.342Z,19.57
2022-07-26T04:09:07.324Z,19.48
2022-07-26T04:11:35.211Z,19.56
2022-07-26T04:14:02.254Z,19.54
2022-07-26T04:16:29.372Z,19.50
2022-07-26T04:18:56.455Z,19.56
2022-07-26T04:21:23.268Z,19.61
2022-07-26T04:23:51.478Z,19.70
2022-07-26T04:26:21.159Z,19.67
2022-07-26T04:28:48.095Z,19.65
2022-07-26T04:31:15.094Z,19.71
2022-07-26T04:33:41.813Z,19.50
2022-07-26T04:36:08.946Z,19.48
2022-07-26T04:38:35.595Z,19.44
2022-07-26T04:41:02.337Z,19.41
2022-07-26T04:43:29.026Z,19.49
2022-07-26T04:45:57.566Z,19.57
2022-07-26T04:48:24.808Z,19.54
2022-07-26T04:50:51.975Z,19.47
2022-07-26T04:53:18.883Z,19.49
2022-07-26T04:55:45.988Z,19.67
2022-07-26T04:58:12.788Z,19.68
2022-07-26T05:03:26.628Z,19.76
2022-07-26T05:05:53.791Z,19.80
2022-07-26T05:08:20.548Z,19.72
2022-07-26T05:10:51.617Z,19.70
2022-07-26T05:13:23.141Z,19.64
2022-07-26T05:15:57.012Z,19.65
2022-07-26T05:18:23.662Z,19.64
2022-07-26T05:20:51.541Z,19.61
2022-07-26T05:23:19.944Z,19.67
2022-07-26T05:25:46.909Z,19.70
2022-07-26T05:28:13.593Z,19.65
2022-07-26T05:30:40.268Z,19.39
2022-07-26T05:33:06.931Z,19.47
2022-07-26T05:35:33.617Z,19.59
2022-07-26T05:38:00.296Z,19.66
2022-07-26T05:40:27.086Z,19.69
2022-07-26T05:42:53.810Z,19.76
2022-07-26T05:45:20.494Z,19.73
2022-07-26T05:47:52.922Z,19.61
2022-07-26T05:50:20.043Z,19.58
2022-07-26T05:52:46.785Z,19.47
2022-07-26T05:55:13.919Z,19.45
2022-07-26T05:57:42.062Z,19.58
2022-07-26T06:00:12.185Z,19.65
2022-07-26T06:02:39.129Z,19.76
2022-07-26T06:05:06.635Z,19.87
2022-07-26T06:07:33.913Z,20.04
2022-07-26T06:10:00.587Z,20.36
2022-07-26T06:12:27.363Z,20.91
2022-07-26T06:14:53.999Z,21.33
2022-07-26T06:17:20.861Z,21.60
2022-07-26T06:19:47.967Z,21.61
2022-07-26T06:22:15.510Z,21.89
2022-07-26T06:24:42.144Z,21.99
2022-07-26T06:27:08.848Z,22.22
2022-07-26T06:29:35.560Z,22.38
2022-07-26T06:32:02.368Z,22.62
2022-07-26T06:34:29.247Z,22.78
2022-07-26T06:36:56.027Z,22.94
2022-07-26T06:39:22.667Z,22.95
2022-07-26T06:41:49.354Z,22.74
2022-07-26T06:44:22.659Z,22.78
2022-07-26T06:46:49.889Z,23.03
2022-07-26T06:49:20.587Z,23.37
2022-07-26T06:51:49.029Z,23.39
2022-07-26T06:54:15.774Z,23.37
2022-07-26T06:56:42.459Z,23.18
2022-07-26T06:59:09.608Z,22.78
2022-07-26T07:01:58.433Z,22.55
2022-07-26T07:04:23.270Z,22.38
2022-07-26T07:06:50.058Z,22.13
2022-07-26T07:09:17.377Z,22.23
2022-07-26T07:11:46.003Z,22.78
2022-07-26T07:14:15.529Z,23.02
2022-07-26T07:16:42.286Z,23.49
2022-07-26T07:19:09.024Z,23.34
2022-07-26T07:21:35.776Z,23.03
2022-07-26T07:24:02.435Z,22.74
2022-07-26T07:26:29.385Z,22.52
2022-07-26T07:28:56.342Z,22.62
2022-07-26T07:31:30.397Z,22.44
2022-07-26T07:33:57.743Z,22.30
2022-07-26T07:36:24.601Z,22.11
2022-07-26T07:38:51.903Z,22.15
2022-07-26T07:41:19.088Z,22.10
2022-07-26T07:43:46.028Z,21.99
2022-07-26T07:46:13.351Z,21.99
2022-07-26T07:48:46.998Z,22.10
2022-07-26T07:51:14.333Z,22.92
2022-07-26T07:53:41.020Z,23.63
2022-07-26T07:56:08.013Z,24.16
2022-07-26T07:58:34.763Z,24.57
2022-07-26T08:01:01.687Z,24.68
2022-07-26T08:03:38.886Z,24.30
2022-07-26T08:06:07.460Z,23.86
2022-07-26T08:08:34.843Z,23.41
2022-07-26T08:11:01.747Z,23.20
2022-07-26T08:13:30.524Z,22.97
2022-07-26T08:15:59.397Z,22.84
2022-07-26T08:18:27.828Z,22.77
2022-07-26T08:20:55.477Z,22.72
2022-07-26T08:23:22.222Z,22.62
2022-07-26T08:25:58.579Z,22.58
2022-07-26T08:31:15.253Z,23.03
2022-07-26T08:33:46.082Z,23.31
2022-07-26T08:36:17.367Z,23.63
2022-07-26T08:38:44.791Z,23.84
2022-07-26T08:41:14.352Z,23.71
2022-07-26T08:43:50.646Z,23.62
2022-07-26T08:46:24.728Z,23.76
2022-07-26T08:48:52.479Z,24.31
2022-07-26T08:51:22.741Z,24.99
2022-07-26T08:53:52.070Z,25.70
2022-07-26T08:56:18.724Z,26.17
2022-07-26T08:58:45.687Z,26.25
2022-07-26T09:01:13.082Z,26.12
2022-07-26T09:03:41.665Z,25.65
2022-07-26T09:06:13.211Z,25.03
2022-07-26T09:08:40.080Z,24.30
2022-07-26T09:11:25.189Z,23.84
2022-07-26T09:13:56.695Z,24.55
2022-07-26T09:16:23.657Z,25.44
2022-07-26T09:18:50.499Z,25.78
2022-07-26T09:21:30.210Z,26.43
2022-07-26T09:23:58.425Z,26.72
2022-07-26T09:26:26.088Z,26.72
2022-07-26T09:29:11.033Z,26.80
2022-07-26T09:31:39.631Z,27.03
2022-07-26T09:34:09.974Z,27.25
2022-07-26T09:36:53.596Z,27.71
2022-07-26T09:39:22.759Z,27.35
2022-07-26T09:42:27.615Z,27.31
2022-07-26T09:44:57.116Z,27.90
2022-07-26T09:47:36.221Z,28.03
2022-07-26T09:50:30.832Z,27.41
2022-07-26T09:53:07.590Z,26.81
2022-07-26T09:55:44.615Z,27.32
2022-07-26T09:58:16.453Z,28.03
2022-07-26T10:00:44.188Z,27.89
2022-07-26T10:03:11.338Z,28.26
2022-07-26T10:05:38.393Z,28.41
2022-07-26T10:08:06.312Z,28.80
2022-07-26T10:10:39.269Z,29.06
2022-07-26T10:13:07.600Z,29.15
2022-07-26T10:15:40.438Z,29.17
2022-07-26T10:18:10.223Z,29.48
2022-07-26T10:20:46.811Z,29.92
2022-07-26T10:23:32.295Z,30.14
2022-07-26T10:26:00.684Z,30.08
2022-07-26T10:28:30.446Z,30.22
2022-07-26T10:31:30.410Z,30.74
2022-07-26T10:33:59.251Z,30.86
2022-07-26T10:36:37.988Z,30.89
2022-07-26T10:39:15.608Z,30.37
2022-07-26T10:41:47.325Z,29.64
2022-07-26T10:44:29.053Z,29.80
2022-07-26T10:46:57.130Z,30.20
2022-07-26T10:49:29.988Z,29.50
2022-07-26T10:52:15.478Z,29.14
2022-07-26T10:54:57.531Z,28.80
2022-07-26T10:57:24.388Z,28.89
2022-07-26T10:59:56.231Z,28.64
2022-07-26T11:02:33.269Z,28.74
2022-07-26T11:05:05.423Z,29.18
2022-07-26T11:07:32.259Z,29.52
2022-07-26T11:10:00.453Z,29.56
2022-07-26T11:12:27.319Z,29.64
2022-07-26T11:14:54.443Z,29.75
2022-07-26T11:17:27.459Z,30.05
2022-07-26T11:19:54.515Z,30.10
2022-07-26T11:22:21.926Z,29.36
2022-07-26T11:24:48.672Z,28.96
2022-07-26T11:27:15.431Z,29.20
2022-07-26T11:29:42.077Z,29.60
2022-07-26T11:32:20.388Z,30.32
2022-07-26T11:34:59.430Z,30.29
2022-07-26T11:37:26.460Z,30.42
2022-07-26T11:39:53.252Z,30.50
2022-07-26T11:42:21.568Z,30.48
2022-07-26T11:44:49.475Z,29.67
2022-07-26T11:47:20.615Z,29.38
2022-07-26T11:50:00.592Z,28.92
2022-07-26T11:52:36.787Z,28.76
2022-07-26T11:55:03.757Z,29.25
2022-07-26T11:57:31.852Z,30.09
2022-07-26T12:00:00.606Z,29.80
2022-07-26T12:02:28.879Z,29.89
2022-07-26T12:05:22.652Z,29.63
2022-07-26T12:08:05.297Z,28.74
2022-07-26T12:10:32.172Z,28.58
2022-07-26T12:13:14.256Z,29.00
2022-07-26T12:15:52.860Z,29.53
2022-07-26T12:18:30.507Z,29.51
2022-07-26T12:21:07.185Z,29.76
2022-07-26T12:24:00.999Z,30.04
2022-07-26T12:26:30.828Z,30.13
2022-07-26T12:29:00.141Z,29.97
2022-07-26T12:31:32.309Z,29.31
2022-07-26T12:33:59.942Z,28.63
2022-07-26T12:36:29.626Z,28.18
2022-07-26T12:38:58.976Z,28.95
2022-07-26T12:41:37.497Z,29.69
2022-07-26T12:44:11.981Z,29.60
2022-07-26T12:46:39.450Z,29.01
2022-07-26T12:49:06.295Z,29.14
2022-07-26T12:51:33.856Z,29.47
2022-07-26T12:54:00.711Z,29.60
2022-07-26T12:56:27.480Z,29.48
2022-07-26T12:58:56.077Z,29.55
2022-07-26T13:01:22.964Z,29.60
2022-07-26T13:03:49.728Z,29.21
2022-07-26T13:06:16.539Z,29.38
2022-07-26T13:08:43.240Z,29.61
2022-07-26T13:11:10.328Z,29.93
2022-07-26T13:13:38.198Z,30.09
2022-07-26T13:16:11.212Z,29.77
2022-07-26T13:18:39.628Z,29.74
2022-07-26T13:21:06.571Z,29.65
2022-07-26T13:23:35.554Z,28.60
2022-07-26T13:26:03.471Z,28.95
2022-07-26T13:28:30.860Z,29.35
2022-07-26T13:30:57.677Z,29.05
2022-07-26T13:33:24.484Z,28.11
2022-07-26T13:35:51.232Z,28.19
2022-07-26T13:38:19.807Z,28.54
2022-07-26T13:40:46.665Z,28.84
2022-07-26T13:43:13.388Z,29.04
2022-07-26T13:45:40.171Z,29.11
2022-07-26T13:48:07.322Z,29.09
2022-07-26T13:50:34.020Z,29.02
2022-07-26T13:53:00.870Z,28.81
2022-07-26T13:55:27.556Z,29.14
2022-07-26T13:57:57.117Z,29.23
2022-07-26T14:00:29.497Z,29.43
2022-07-26T14:03:00.049Z,29.32
2022-07-26T14:05:28.129Z,29.15
2022-07-26T14:07:55.533Z,29.36
2022-07-26T14:10:22.904Z,29.51
2022-07-26T14:12:49.859Z,29.43
2022-07-26T14:15:22.239Z,29.16
2022-07-26T14:17:50.445Z,28.97
2022-07-26T14:20:17.519Z,28.91
2022-07-26T14:22:44.864Z,28.97
2022-07-26T14:25:11.651Z,28.90
2022-07-26T14:27:38.496Z,28.61
2022-07-26T14:30:05.706Z,28.46
2022-07-26T14:32:32.459Z,28.19
2022-07-26T14:34:59.161Z,27.99
2022-07-26T14:37:42.186Z,27.97
2022-07-26T14:40:14.201Z,27.89
2022-07-26T14:42:41.100Z,28.40
2022-07-26T14:45:09.724Z,28.58
2022-07-26T14:47:36.716Z,28.40
2022-07-26T14:50:06.883Z,28.04
2022-07-26T14:52:36.901Z,27.76
2022-07-26T14:55:04.165Z,27.47
2022-07-26T14:57:30.983Z,27.69
2022-07-26T14:59:59.375Z,27.86
2022-07-26T15:02:26.234Z,27.76
2022-07-26T15:04:53.006Z,27.61
2022-07-26T15:07:19.763Z,27.46
2022-07-26T15:09:46.557Z,27.46
2022-07-26T15:12:13.388Z,27.46
2022-07-26T15:14:41.150Z,27.42
2022-07-26T15:17:07.887Z,27.35
2022-07-26T15:19:35.292Z,27.42
2022-07-26T15:22:02.218Z,27.61
2022-07-26T15:24:29.103Z,27.50
2022-07-26T15:26:55.812Z,27.39
2022-07-26T15:29:22.522Z,27.03
2022-07-26T15:31:49.514Z,26.54
2022-07-26T15:34:16.717Z,26.00
2022-07-26T15:36:43.701Z,26.09
2022-07-26T15:39:18.560Z,26.34
2022-07-26T15:41:47.360Z,26.44
2022-07-26T15:44:16.930Z,26.57
2022-07-26T15:46:47.936Z,26.63
2022-07-26T15:49:16.639Z,26.63
2022-07-26T15:51:43.595Z,26.53
2022-07-26T15:54:13.042Z,26.30
2022-07-26T15:56:40.396Z,26.07
2022-07-26T15:59:07.343Z,26.12
2022-07-26T16:01:35.614Z,26.28
2022-07-26T16:04:03.563Z,26.11
2022-07-26T16:06:30.351Z,26.05
2022-07-26T16:09:15.899Z,26.02
2022-07-26T16:11:43.929Z,26.06
2022-07-26T16:14:10.676Z,25.90
2022-07-26T16:16:37.443Z,25.84
2022-07-26T16:19:04.125Z,25.95
2022-07-26T16:21:31.995Z,25.92
2022-07-26T16:24:01.832Z,25.69
2022-07-26T16:26:32.907Z,25.74
2022-07-26T16:29:00.561Z,25.81
2022-07-26T16:31:27.387Z,25.73
2022-07-26T16:33:54.143Z,25.69
2022-07-26T16:36:20.865Z,25.78
2022-07-26T16:38:47.602Z,25.78
2022-07-26T16:41:14.309Z,25.74
2022-07-26T16:43:41.541Z,25.69
2022-07-26T16:46:08.493Z,25.68
2022-07-26T16:48:35.295Z,25.57
2022-07-26T16:51:02.181Z,25.56
2022-07-26T16:53:28.989Z,25.43
2022-07-26T16:55:55.838Z,25.41
2022-07-26T16:58:22.893Z,25.38
2022-07-26T17:00:49.796Z,25.31
2022-07-26T17:03:16.836Z,25.23
2022-07-26T17:05:45.913Z,25.06
2022-07-26T17:08:12.776Z,24.91
2022-07-26T17:10:39.454Z,24.81
2022-07-26T17:13:06.320Z,24.67
2022-07-26T17:15:33.260Z,24.68
2022-07-26T17:17:59.988Z,24.63
2022-07-26T17:20:27.275Z,24.59
2022-07-26T17:22:54.087Z,24.61
2022-07-26T17:25:20.755Z,24.51
2022-07-26T17:27:47.605Z,24.45
2022-07-26T17:30:14.632Z,24.42
2022-07-26T17:32:41.898Z,24.33
2022-07-26T17:35:09.496Z,24.31
2022-07-26T17:37:36.378Z,24.24
2022-07-26T17:40:07.822Z,24.18
2022-07-26T17:42:35.188Z,24.06
2022-07-26T17:45:02.150Z,23.92
2022-07-26T17:47:30.518Z,23.90
2022-07-26T17:50:33.947Z,23.88
2022-07-26T17:52:50.430Z,23.85
2022-07-26T17:55:19.140Z,23.77
2022-07-26T17:57:48.239Z,23.77
2022-07-26T18:00:16.981Z,23.81
2022-07-26T18:02:43.698Z,23.76
2022-07-26T18:05:11.273Z,23.73
2022-07-26T18:07:38.922Z,23.73
2022-07-26T18:10:06.764Z,23.69
2022-07-26T18:12:33.539Z,23.60
2022-07-26T18:15:00.227Z,23.50
2022-07-26T18:17:26.936Z,23.42
2022-07-26T18:19:53.591Z,23.39
2022-07-26T18:22:20.387Z,23.34
2022-07-26T18:24:47.063Z,23.25
2022-07-26T18:27:13.712Z,23.19
2022-07-26T18:29:40.376Z,23.21
2022-07-26T18:32:07.203Z,23.20
2022-07-26T18:34:33.884Z,23.19
2022-07-26T18:37:00.626Z,23.07
2022-07-26T18:39:32.946Z,22.90
2022-07-26T18:42:01.199Z,22.83
2022-07-26T18:44:27.872Z,22.77
2022-07-26T18:46:56.385Z,22.72
2022-07-26T18:49:30.733Z,22.72
2022-07-26T18:52:04.224Z,22.61
2022-07-26T18:54:35.383Z,22.51
2022-07-26T18:57:02.114Z,22.44
2022-07-26T18:59:29.764Z,22.38
2022-07-26T19:01:58.840Z,22.37
2022-07-26T19:04:26.111Z,22.37
2022-07-26T19:06:52.895Z,22.27
2022-07-26T19:09:19.866Z,22.13
2022-07-26T19:11:46.546Z,22.05
2022-07-26T19:14:13.831Z,21.97
2022-07-26T19:16:40.580Z,21.92
2022-07-26T19:19:07.309Z,21.85
2022-07-26T19:21:33.998Z,21.79
2022-07-26T19:24:00.673Z,21.77
2022-07-26T19:26:27.662Z,21.71
2022-07-26T19:28:54.540Z,21.66
2022-07-26T19:31:21.992Z,21.62
2022-07-26T19:33:48.770Z,21.53
2022-07-26T19:36:18.236Z,21.49
2022-07-26T19:38:52.377Z,21.39
2022-07-26T19:41:20.060Z,21.32
2022-07-26T19:43:46.886Z,21.30
2022-07-26T19:46:13.704Z,21.25
2022-07-26T19:48:40.464Z,21.26
2022-07-26T19:51:07.158Z,21.31
2022-07-26T19:53:33.950Z,21.33
2022-07-26T19:56:00.664Z,21.31
2022-07-26T19:58:29.276Z,21.25
2022-07-26T20:00:56.348Z,21.21
2022-07-26T20:03:23.167Z,21.20
2022-07-26T20:05:50.256Z,21.23
2022-07-26T20:08:16.929Z,21.20
2022-07-26T20:10:43.644Z,21.16
2022-07-26T20:13:10.444Z,21.10
2022-07-26T20:15:37.113Z,21.03
2022-07-26T20:18:04.746Z,21.01
2022-07-26T20:20:31.657Z,20.98
2022-07-26T20:22:58.618Z,21.03
2022-07-26T20:25:25.335Z,21.01
2022-07-26T20:27:52.923Z,20.98
2022-07-26T20:30:19.754Z,21.03
2022-07-26T20:32:46.455Z,21.04
2022-07-26T20:35:13.134Z,21.06
2022-07-26T20:37:41.129Z,21.05
2022-07-26T20:40:09.143Z,21.06
2022-07-26T20:42:38.384Z,21.04
2022-07-26T20:45:11.269Z,21.02
2022-07-26T20:47:43.135Z,20.94
2022-07-26T20:50:13.323Z,20.95
2022-07-26T20:52:40.075Z,20.97
2022-07-26T20:55:08.105Z,20.96
2022-07-26T20:57:35.532Z,20.91
2022-07-26T21:00:05.514Z,20.86
2022-07-26T21:02:32.565Z,20.77
2022-07-26T21:04:59.935Z,20.69
2022-07-26T21:07:55.609Z,20.70
2022-07-26T21:10:14.064Z,20.64
2022-07-26T21:12:41.148Z,20.62
2022-07-26T21:15:08.266Z,20.58
2022-07-26T21:17:36.384Z,20.58
2022-07-26T21:20:05.424Z,20.57
2022-07-26T21:22:33.055Z,20.45
2022-07-26T21:25:00.457Z,20.34
2022-07-26T21:27:27.528Z,20.28
2022-07-26T21:29:54.647Z,20.30
2022-07-26T21:32:24.544Z,20.33
2022-07-26T21:34:52.934Z,20.32
2022-07-26T21:37:19.948Z,20.35
2022-07-26T21:39:47.014Z,20.40
2022-07-26T21:42:14.688Z,20.40
2022-07-26T21:44:41.717Z,20.32
2022-07-26T21:47:08.363Z,20.26
2022-07-26T21:49:35.059Z,20.23
2022-07-26T21:52:02.224Z,20.14
2022-07-26T21:54:30.089Z,20.09
2022-07-26T21:56:56.772Z,20.11
2022-07-26T21:59:23.652Z,20.10
2022-07-26T22:01:50.516Z,20.03
2022-07-26T22:04:18.196Z,19.95
2022-07-26T22:06:45.603Z,19.93
2022-07-26T22:09:12.998Z,19.95
2022-07-26T22:11:40.367Z,19.95
2022-07-26T22:14:08.565Z,19.91
2022-07-26T22:16:36.578Z,19.86
2022-07-26T22:19:03.498Z,19.87
2022-07-26T22:21:30.178Z,19.90
2022-07-26T22:23:56.917Z,19.91
2022-07-26T22:26:26.993Z,19.89
2022-07-26T22:28:53.743Z,19.83
2022-07-26T22:31:20.444Z,19.84
2022-07-26T22:33:47.208Z,19.88
2022-07-26T22:36:14.204Z,19.87
2022-07-26T22:38:41.127Z,19.88
2022-07-26T22:41:07.802Z,19.86
2022-07-26T22:43:34.449Z,19.79
2022-07-26T22:46:01.138Z,19.73
2022-07-26T22:48:27.880Z,19.74
2022-07-26T22:50:54.697Z,19.74
2022-07-26T22:53:21.627Z,19.70
2022-07-26T22:55:48.290Z,19.71
2022-07-26T22:58:14.954Z,19.66
2022-07-26T23:00:41.751Z,19.71
2022-07-26T23:03:15.248Z,19.72
2022-07-26T23:05:47.682Z,19.73
2022-07-26T23:08:45.296Z,19.73
2022-07-26T23:11:02.315Z,19.77
2022-07-26T23:13:29.018Z,19.72
2022-07-26T23:16:00.283Z,19.65
2022-07-26T23:18:27.812Z,19.54
2022-07-26T23:20:54.460Z,19.47
2022-07-26T23:23:21.377Z,19.40
2022-07-26T23:25:48.082Z,19.38
2022-07-26T23:28:35.233Z,19.33
2022-07-26T23:31:11.802Z,19.25
2022-07-26T23:33:52.851Z,19.24
2022-07-26T23:36:29.070Z,19.20
2022-07-26T23:38:57.602Z,19.13
2022-07-26T23:41:24.978Z,19.09
2022-07-26T23:43:52.996Z,18.97
2022-07-26T23:46:20.252Z,18.97
2022-07-26T23:48:47.414Z,19.00
2022-07-26T23:51:14.251Z,19.06
2022-07-26T23:53:40.943Z,19.09
2022-07-26T23:56:07.644Z,19.15
2022-07-26T23:58:34.325Z,19.19
